Time;durP1;ratioP1;P1;durP2;ratioP2;P2;SDS_P1;SDS_P2;PMS_P1;PMS_P2;Temp;Humidity;BMP_temperature;BMP_pressure;BME280_temperature;BME280_humidity;BME280_pressure;Samples;Min_cycle;Max_cycle;Signal;HPM_P1;HPM_P2
2024/03/02 00:00:27;;;;;;;2.33;0.90;;;;;;;20.66;37.58;99462.09;4267175;27;20042;-58
2024/03/02 00:02:29;;;;;;;2.47;0.85;;;;;;;20.74;37.13;99475.53;4267224;27;20092;-58
2024/03/02 00:04:30;;;;;;;2.28;0.95;;;;;;;20.73;37.10;99479.22;4267294;27;20043;-58
2024/03/02 00:06:32;;;;;;;2.50;0.90;;;;;;;20.71;37.32;99473.97;4267018;27;20487;-58
2024/03/02 00:08:34;;;;;;;;;;;;;;;20.71;37.43;99475.81;4249286;27;20437;-58
2024/03/02 00:10:39;;;;;;;3.05;0.85;;;;;;;20.67;37.48;99469.94;4267277;27;19919;-58
2024/03/02 00:12:42;;;;;;;3.15;1.10;;;;;;;20.71;37.21;99467.81;4266793;27;20438;-58
2024/03/02 00:14:43;;;;;;;2.55;0.80;;;;;;;20.67;37.15;99463.75;4267184;27;20061;-58
2024/03/02 00:16:45;;;;;;;2.95;0.90;;;;;;;20.69;37.10;99465.31;4266797;27;20092;-57
2024/03/02 00:18:47;;;;;;;2.85;0.90;;;;;;;20.67;37.30;99469.09;4266987;27;20138;-58
2024/03/02 00:20:48;;;;;;;2.20;0.88;;;;;;;20.49;37.17;99448.53;4266995;27;20129;-58
2024/03/02 00:22:50;;;;;;;;;;;;;;;20.68;37.16;99471.63;4248969;27;20043;-58
2024/03/02 00:24:52;;;;;;;3.03;0.90;;;;;;;20.64;37.34;99472.06;4266790;27;20085;-58
2024/03/02 00:26:54;;;;;;;1.55;0.70;;;;;;;20.67;37.25;99483.31;4266410;27;20053;-58
2024/03/02 00:28:56;;;;;;;3.13;1.10;;;;;;;20.64;37.21;99480.09;4266271;27;20453;-59
2024/03/02 00:31:02;;;;;;;2.15;0.80;;;;;;;20.66;37.21;99481.63;4266969;27;20545;-57
2024/03/02 00:33:07;;;;;;;2.55;0.70;;;;;;;20.65;37.00;99482.59;4266817;27;20045;-57
2024/03/02 00:35:10;;;;;;;3.20;0.98;;;;;;;20.59;37.18;99473.34;4266883;27;20485;-58
2024/03/02 00:37:11;;;;;;;1.88;0.73;;;;;;;20.64;36.89;99488.94;4266424;27;20046;-58
2024/03/02 00:39:16;;;;;;;2.63;0.90;;;;;;;20.64;37.28;99485.44;4266788;27;20053;-58
2024/03/02 00:41:32;;;;;;;2.70;1.00;;;;;;;20.64;37.14;99488.09;4266201;27;20049;-58
2024/03/02 00:43:56;;;;;;;2.13;0.70;;;;;;;20.47;37.13;99463.03;4266491;27;20188;-58
2024/03/02 00:45:58;;;;;;;2.30;0.80;;;;;;;20.64;36.86;99498.78;4266429;27;20126;-58
2024/03/02 00:48:00;;;;;;;3.13;0.90;;;;;;;20.62;37.25;99496.28;4266332;27;20126;-58
2024/03/02 00:50:01;;;;;;;;;;;;;;;20.65;37.23;99500.47;4266874;27;20054;-57
2024/03/02 00:52:11;;;;;;;2.83;0.80;;;;;;;20.50;37.37;99487.63;4266354;27;19962;-58
2024/03/02 00:54:13;;;;;;;2.90;0.77;;;;;;;20.56;37.13;99497.72;4266501;27;20082;-58
2024/03/02 00:56:15;;;;;;;2.75;0.90;;;;;;;20.54;37.21;99501.53;4266126;27;20046;-58
2024/03/02 00:58:17;;;;;;;;;;;;;;;20.62;37.03;99511.44;4266828;27;20049;-58
2024/03/02 01:00:19;;;;;;;2.60;0.83;;;;;;;20.58;37.01;99505.56;4266180;27;20001;-58
2024/03/02 01:02:21;;;;;;;3.58;0.90;;;;;;;20.58;37.14;99508.22;4266010;27;20729;-56
2024/03/02 01:04:22;;;;;;;3.58;1.20;;;;;;;20.59;36.91;99518.75;4266201;27;20126;-58
2024/03/02 01:06:24;;;;;;;2.75;0.80;;;;;;;20.55;36.96;99508.53;4265992;27;20059;-59
2024/03/02 01:08:26;;;;;;;;;;;;;;;20.59;37.11;99516.09;4266658;27;20047;-58
2024/03/02 01:10:28;;;;;;;2.15;0.77;;;;;;;20.57;37.07;99520.75;4265858;27;19940;-59
2024/03/02 01:12:29;;;;;;;2.67;0.95;;;;;;;20.58;36.83;99521.59;4265999;27;20070;-58
2024/03/02 01:14:32;;;;;;;3.17;0.70;;;;;;;20.59;37.03;99505.41;4265909;27;20077;-58
2024/03/02 01:16:33;;;;;;;3.38;0.90;;;;;;;20.54;36.71;99509.53;4265723;27;20053;-58
2024/03/02 01:18:35;;;;;;;3.78;0.82;;;;;;;20.54;36.67;99512.19;4266001;27;20053;-58
2024/03/02 01:20:37;;;;;;;2.78;0.80;;;;;;;20.56;37.07;99502.19;4265977;27;20039;-58
2024/03/02 01:22:38;;;;;;;2.28;0.70;;;;;;;20.56;37.17;99503.06;4266073;27;20051;-58
2024/03/02 01:24:40;;;;;;;3.03;0.90;;;;;;;20.56;36.61;99519.06;4266052;27;20056;-58
2024/03/02 01:26:42;;;;;;;2.67;1.00;;;;;;;20.58;36.79;99513.56;4265561;27;20039;-58
2024/03/02 01:28:44;;;;;;;3.08;0.95;;;;;;;20.59;36.71;99518.75;4247625;27;20112;-59
2024/03/02 01:30:46;;;;;;;2.22;0.80;;;;;;;20.58;37.13;99508.22;4265948;27;20077;-58
2024/03/02 01:32:47;;;;;;;;;;;;;;;20.56;37.01;99508.38;4266273;27;20065;-58
2024/03/02 01:34:49;;;;;;;2.15;0.80;;;;;;;20.57;37.01;99514.56;4265871;27;19919;-58
2024/03/02 01:36:51;;;;;;;3.00;0.90;;;;;;;20.57;37.19;99501.22;4265823;27;20039;-58
2024/03/02 01:38:52;;;;;;;2.40;0.90;;;;;;;20.55;36.75;99503.22;4265388;27;20043;-57
2024/03/02 01:40:56;;;;;;;2.20;0.88;;;;;;;20.52;36.84;99501.69;4264598;27;20103;-58
2024/03/02 01:42:58;;;;;;;2.95;0.90;;;;;;;20.52;37.13;99493.66;4265434;27;20042;-58
2024/03/02 01:45:00;;;;;;;3.22;1.00;;;;;;;20.52;37.11;99491.00;4265552;27;20045;-58
2024/03/02 01:47:02;;;;;;;3.60;1.17;;;;;;;20.42;36.98;99480.34;4265559;27;20061;-58
2024/03/02 01:49:04;;;;;;;3.50;0.80;;;;;;;20.51;36.96;99491.97;4247146;27;20551;-58
2024/03/02 01:51:06;;;;;;;4.25;0.90;;;;;;;20.47;37.06;99487.09;4265260;27;20043;-58
2024/03/02 01:53:08;;;;;;;3.08;0.80;;;;;;;20.48;36.68;99491.44;4265367;27;20042;-58
2024/03/02 01:55:10;;;;;;;;;;;;;;;20.50;36.84;99492.09;4265584;27;20524;-58
2024/03/02 01:57:12;;;;;;;2.60;0.80;;;;;;;20.48;36.96;99486.91;4246980;27;19972;-58
2024/03/02 01:59:13;;;;;;;2.25;0.90;;;;;;;20.46;37.07;99480.88;4265248;27;20070;-58
2024/03/02 02:01:16;;;;;;;3.28;0.90;;;;;;;20.46;36.86;99480.88;4265394;27;20133;-57
2024/03/02 02:03:18;;;;;;;3.10;1.00;;;;;;;20.46;36.91;99478.22;4265082;27;20047;-58
2024/03/02 02:05:20;;;;;;;;;;;;;;;20.51;37.00;99477.75;4265440;27;20050;-57
2024/03/02 02:07:21;;;;;;;3.65;0.82;;;;;;;20.35;36.99;99465.06;4265157;27;20051;-58
2024/03/02 02:09:24;;;;;;;3.20;1.00;;;;;;;20.48;36.79;99480.75;4265041;27;20049;-58
2024/03/02 02:11:26;;;;;;;2.95;0.80;;;;;;;20.40;37.09;99466.31;4265267;27;20042;-58
2024/03/02 02:13:27;;;;;;;2.65;0.80;;;;;;;20.48;36.78;99488.75;4265264;27;20054;-58
2024/03/02 02:15:30;;;;;;;2.90;0.90;;;;;;;20.48;36.55;99478.91;4264906;27;20088;-59
2024/03/02 02:17:32;;;;;;;2.65;0.90;;;;;;;20.43;36.83;99473.19;4264992;27;20499;-58
2024/03/02 02:19:34;;;;;;;;;;;;;;;20.46;36.73;99486.22;4247101;27;20565;-58
2024/03/02 02:21:36;;;;;;;2.42;0.70;;;;;;;20.41;36.69;99476.00;4265217;27;19923;-58
2024/03/02 02:23:37;;;;;;;3.92;1.20;;;;;;;20.41;37.13;99472.47;4264653;27;20050;-58
2024/03/02 02:25:39;;;;;;;3.50;1.00;;;;;;;20.42;36.97;99463.50;4265184;27;20505;-58
2024/03/02 02:27:40;;;;;;;2.88;0.85;;;;;;;20.46;37.04;99469.38;4264915;27;20043;-57
2024/03/02 02:29:42;;;;;;;3.58;0.95;;;;;;;20.43;36.73;99474.00;4264700;27;20062;-58
2024/03/02 02:31:44;;;;;;;3.28;1.08;;;;;;;20.43;36.88;99462.50;4265105;27;20039;-57
2024/03/02 02:33:45;;;;;;;3.63;1.00;;;;;;;20.43;36.67;99471.34;4246567;27;20076;-58
2024/03/02 02:35:47;;;;;;;2.20;0.90;;;;;;;20.38;36.76;99441.56;4264825;27;20424;-57
2024/03/02 02:37:50;;;;;;;2.25;0.68;;;;;;;20.42;36.64;99450.97;4264458;27;20042;-58
2024/03/02 02:39:52;;;;;;;3.33;0.95;;;;;;;20.39;36.61;99447.75;4264436;27;20047;-58
2024/03/02 02:41:54;;;;;;;4.18;1.10;;;;;;;20.42;36.74;99453.63;4264711;27;20046;-57
2024/03/02 02:43:56;;;;;;;3.40;0.90;;;;;;;20.40;36.81;99442.28;4264767;27;20117;-58
2024/03/02 02:45:57;;;;;;;;;;;;;;;20.43;36.79;99446.47;4265272;27;20070;-57
2024/03/02 02:48:01;;;;;;;2.77;0.90;;;;;;;20.40;36.92;99439.63;4264637;27;19919;-56
2024/03/02 02:50:04;;;;;;;3.35;0.88;;;;;;;20.45;36.59;99432.97;4264679;27;20121;-57
2024/03/02 02:52:05;;;;;;;3.05;0.98;;;;;;;20.44;36.79;99429.47;4264258;27;20129;-59
2024/03/02 02:54:07;;;;;;;3.08;0.98;;;;;;;20.44;36.68;99434.81;4264694;27;20096;-57
2024/03/02 02:56:09;;;;;;;2.78;0.90;;;;;;;20.43;36.83;99430.47;4246302;27;20039;-57
2024/03/02 02:58:10;;;;;;;;;;;;;;;20.42;36.50;99415.41;4265095;27;20043;-58
2024/03/02 03:00:14;;;;;;;3.27;1.00;;;;;;;20.36;36.96;99421.38;4264592;27;20367;-57
2024/03/02 03:02:18;;;;;;;3.95;1.00;;;;;;;20.36;36.93;99424.84;4246352;27;20091;-57
2024/03/02 03:04:19;;;;;;;4.88;1.05;;;;;;;20.38;36.68;99414.06;4264724;27;20497;-57
2024/03/02 03:06:21;;;;;;;4.97;1.02;;;;;;;20.40;36.80;99414.72;4263887;27;20142;-57
2024/03/02 03:08:23;;;;;;;2.83;0.90;;;;;;;20.40;36.44;99414.72;4264594;27;20046;-57
2024/03/02 03:10:26;;;;;;;2.63;0.80;;;;;;;20.35;36.58;99403.66;4264498;27;20047;-57
2024/03/02 03:12:28;;;;;;;2.15;0.80;;;;;;;20.34;36.83;99402.84;4264603;27;20046;-57
2024/03/02 03:14:30;;;;;;;;;;;;;;;20.39;36.76;99405.03;4265098;27;20528;-58
2024/03/02 03:16:32;;;;;;;3.20;1.05;;;;;;;20.35;36.93;99409.00;4264667;27;19919;-57
2024/03/02 03:18:33;;;;;;;4.25;0.90;;;;;;;20.32;36.96;99399.47;4264175;27;20043;-58
2024/03/02 03:20:35;;;;;;;;;;;;;;;20.39;36.79;99402.34;4264847;27;20051;-57
2024/03/02 03:22:40;;;;;;;3.03;0.80;;;;;;;20.37;36.40;99402.50;4264266;27;19993;-58
2024/03/02 03:24:41;;;;;;;4.00;1.08;;;;;;;20.37;36.50;99396.34;4264502;27;20126;-58
2024/03/02 03:26:43;;;;;;;4.03;1.00;;;;;;;20.34;36.47;99396.63;4264464;27;20051;-58
2024/03/02 03:28:44;;;;;;;2.28;0.80;;;;;;;20.36;36.50;99400.00;4264356;27;20046;-58
2024/03/02 03:30:46;;;;;;;3.97;1.20;;;;;;;20.35;36.89;99395.66;4264410;27;20046;-58
2024/03/02 03:32:48;;;;;;;2.58;0.85;;;;;;;20.33;36.78;99390.47;4264365;27;20047;-58
2024/03/02 03:34:49;;;;;;;3.22;1.00;;;;;;;20.33;36.84;99392.28;4264380;27;20454;-58
2024/03/02 03:36:51;;;;;;;3.53;0.95;;;;;;;20.33;36.71;99403.81;4263876;27;20063;-58
2024/03/02 03:38:53;;;;;;;3.35;1.08;;;;;;;20.32;36.90;99399.47;4264156;27;20050;-58
2024/03/02 03:40:55;;;;;;;4.43;1.00;;;;;;;20.33;36.52;99398.47;4264276;27;20049;-58
2024/03/02 03:42:56;;;;;;;3.25;0.90;;;;;;;20.34;36.75;99401.97;4264238;27;20050;-58
2024/03/02 03:44:58;;;;;;;2.35;0.88;;;;;;;20.33;36.75;99406.47;4264385;27;20043;-57
2024/03/02 03:47:02;;;;;;;3.28;0.90;;;;;;;20.33;36.35;99411.81;4264265;27;20485;-57
2024/03/02 03:49:03;;;;;;;3.45;0.93;;;;;;;20.24;36.50;99394.88;4264272;27;20454;-57
2024/03/02 03:51:05;;;;;;;3.40;0.80;;;;;;;20.33;36.75;99400.28;4263656;27;20047;-57
2024/03/02 03:53:07;;;;;;;3.22;0.90;;;;;;;20.27;36.61;99391.91;4264118;27;20443;-59
2024/03/02 03:55:08;;;;;;;4.18;1.10;;;;;;;20.31;36.47;99395.09;4264353;27;20046;-57
2024/03/02 03:57:10;;;;;;;2.65;0.88;;;;;;;20.32;36.69;99395.97;4264225;27;20055;-57
2024/03/02 03:59:12;;;;;;;2.97;0.80;;;;;;;20.31;36.59;99391.59;4264041;27;20043;-58
2024/03/02 04:01:14;;;;;;;3.53;0.88;;;;;;;20.30;36.54;99397.94;4264132;27;20106;-57
2024/03/02 04:03:16;;;;;;;3.45;0.80;;;;;;;20.31;36.62;99400.44;4265108;27;20074;-57
2024/03/02 04:05:17;;;;;;;2.95;0.73;;;;;;;20.31;36.72;99391.59;4266891;27;20095;-57
2024/03/02 04:07:19;;;;;;;3.55;1.00;;;;;;;20.30;36.56;99398.75;4267014;27;20042;-57
2024/03/02 04:09:21;;;;;;;3.03;1.00;;;;;;;20.32;36.47;99393.28;4267392;27;20457;-57
2024/03/02 04:11:22;;;;;;;4.55;1.20;;;;;;;20.33;36.48;99381.59;4267244;27;20161;-58
2024/03/02 04:13:24;;;;;;;3.40;0.90;;;;;;;20.24;36.74;99380.69;4267259;27;20039;-58
2024/03/02 04:15:25;;;;;;;3.55;1.00;;;;;;;20.32;36.47;99393.28;4267037;27;20125;-57
2024/03/02 04:17:27;;;;;;;3.63;1.00;;;;;;;20.30;36.48;99389.94;4266937;27;20045;-57
2024/03/02 04:19:29;;;;;;;3.30;0.90;;;;;;;20.27;36.74;99372.38;4266591;27;20046;-57
2024/03/02 04:21:31;;;;;;;4.00;0.90;;;;;;;20.25;36.55;99382.34;4267044;27;20046;-57
2024/03/02 04:23:33;;;;;;;3.55;1.00;;;;;;;20.26;36.68;99379.53;4266991;27;20049;-57
2024/03/02 04:25:34;;;;;;;3.20;0.90;;;;;;;20.27;36.63;99388.41;4266926;27;20039;-56
2024/03/02 04:27:36;;;;;;;3.80;1.10;;;;;;;20.26;36.45;99382.19;4248441;27;20084;-57
2024/03/02 04:29:38;;;;;;;;;;;;;;;20.25;36.31;99388.53;4267308;27;20062;-56
2024/03/02 04:31:39;;;;;;;3.23;0.90;;;;;;;20.24;36.64;99394.88;4266909;27;20053;-56
2024/03/02 04:33:41;;;;;;;2.95;1.00;;;;;;;20.23;36.62;99389.66;4266372;27;20046;-57
2024/03/02 04:35:43;;;;;;;3.50;1.02;;;;;;;20.21;36.52;99384.50;4266948;27;20051;-57
2024/03/02 04:37:44;;;;;;;3.97;0.85;;;;;;;20.23;36.77;99387.00;4266670;27;20524;-56
2024/03/02 04:39:46;;;;;;;4.13;1.00;;;;;;;20.22;36.29;99386.19;4266498;27;20111;-57
2024/03/02 04:41:48;;;;;;;4.32;1.13;;;;;;;20.22;36.64;99385.31;4266549;27;20045;-56
2024/03/02 04:43:49;;;;;;;3.63;0.98;;;;;;;20.15;36.30;99376.25;4266770;27;20413;-57
2024/03/02 04:45:51;;;;;;;4.72;1.10;;;;;;;20.14;36.24;99380.75;4266471;27;20050;-57
2024/03/02 04:47:53;;;;;;;3.03;0.80;;;;;;;20.08;36.28;99366.16;4266205;27;20051;-57
2024/03/02 04:49:54;;;;;;;2.65;0.73;;;;;;;20.18;36.27;99378.59;4266562;27;20070;-57
2024/03/02 04:51:56;;;;;;;2.15;0.65;;;;;;;20.23;36.15;99395.00;4266391;27;20051;-57
2024/03/02 04:53:58;;;;;;;3.33;0.90;;;;;;;20.19;36.09;99391.78;4266582;27;20046;-58
2024/03/02 04:58:20;;;;;;;3.38;0.95;;;;;;;20.20;36.46;99387.31;4266212;27;20046;-58
2024/03/02 05:00:22;;;;;;;2.47;0.77;;;;;;;20.19;36.42;99385.63;4266171;27;20087;-57
2024/03/02 05:02:23;;;;;;;3.58;0.82;;;;;;;20.18;36.42;99383.94;4265783;27;20050;-57
2024/03/02 05:04:25;;;;;;;3.22;0.80;;;;;;;20.17;36.39;99380.44;4266113;27;20043;-57
2024/03/02 05:06:26;;;;;;;2.95;0.90;;;;;;;20.18;36.24;99383.94;4266010;27;20120;-57
2024/03/02 05:08:28;;;;;;;3.92;0.98;;;;;;;20.14;36.49;99393.25;4266396;27;20523;-57
2024/03/02 05:10:30;;;;;;;4.22;1.00;;;;;;;20.14;36.15;99386.06;4266218;27;20050;-58
2024/03/02 05:14:45;;;;;;;3.53;0.80;;;;;;;20.14;36.42;99379.91;4265840;27;20123;-58
2024/03/02 05:16:47;;;;;;;3.08;0.90;;;;;;;20.14;36.19;99366.56;4266096;27;20411;-60
2024/03/02 05:18:49;;;;;;;;;;;;;;;20.11;36.51;99365.03;4266568;27;20091;-58
2024/03/02 05:20:51;;;;;;;3.72;0.90;;;;;;;20.08;36.40;99370.66;4265983;27;19923;-57
2024/03/02 05:22:53;;;;;;;4.22;1.00;;;;;;;19.91;36.23;99329.59;4265882;27;20420;-58
2024/03/02 05:24:54;;;;;;;2.88;0.73;;;;;;;20.11;36.36;99349.84;4266065;27;20079;-57
2024/03/02 05:26:56;;;;;;;4.25;1.05;;;;;;;20.11;36.13;99363.19;4265853;27;20512;-57
2024/03/02 05:28:58;;;;;;;3.20;0.93;;;;;;;20.05;36.30;99353.13;4266099;27;20039;-57
2024/03/02 05:31:00;;;;;;;3.72;1.05;;;;;;;20.10;36.48;99361.50;4265665;27;20768;-57
2024/03/02 05:33:02;;;;;;;4.10;0.90;;;;;;;20.10;36.31;99344.66;4265556;27;20047;-57
2024/03/02 05:35:04;;;;;;;;;;;;;;;20.10;36.32;99353.50;4266262;27;20058;-57
2024/03/02 05:37:07;;;;;;;4.25;1.23;;;;;;;20.08;36.02;99357.31;4265817;27;19927;-58
2024/03/02 05:39:10;;;;;;;;;;;;;;;20.09;36.21;99356.34;4266181;27;20466;-57
2024/03/02 05:41:11;;;;;;;4.53;1.13;;;;;;;20.01;36.23;99345.56;4265568;27;20340;-57
2024/03/02 05:43:13;;;;;;;4.00;0.73;;;;;;;20.08;36.11;99354.66;4265512;27;20043;-57
2024/03/02 05:45:16;;;;;;;5.00;1.27;;;;;;;20.04;36.33;99353.28;4265712;27;20053;-57
2024/03/02 05:47:18;;;;;;;3.22;1.13;;;;;;;19.99;36.19;99347.53;4265030;27;20043;-56
2024/03/02 05:49:20;;;;;;;2.45;0.70;;;;;;;19.99;36.45;99340.38;4265677;27;20046;-57
2024/03/02 05:51:21;;;;;;;;;;;;;;;20.07;36.26;99350.28;4265735;27;20077;-57
2024/03/02 05:53:23;;;;;;;4.90;1.10;;;;;;;20.04;36.58;99345.28;4265620;27;19923;-57
2024/03/02 05:55:24;;;;;;;4.18;1.02;;;;;;;20.06;36.32;99352.13;4265441;27;20374;-57
2024/03/02 05:57:38;;;;;;;4.28;1.05;;;;;;;20.06;36.07;99351.28;4246972;27;20096;-57
2024/03/02 05:59:40;;;;;;;3.80;0.90;;;;;;;19.99;36.23;99340.38;4265388;27;20047;-57
2024/03/02 06:01:43;;;;;;;;;;;;;;;20.05;36.23;99354.94;4265324;27;20050;-57
2024/03/02 06:03:44;;;;;;;;;;;;;;;20.02;36.36;99353.41;4265762;27;19931;-57
2024/03/02 06:05:49;;;;;;;2.90;0.80;;;;;;;19.84;36.39;99321.34;4265176;27;19919;-58
2024/03/02 06:07:51;;;;;;;4.22;1.10;;;;;;;20.03;36.52;99349.75;4246913;27;20292;-59
2024/03/02 06:09:52;;;;;;;;;;;;;;;20.07;36.34;99350.28;4265700;27;20125;-58
2024/03/02 06:11:54;;;;;;;3.38;0.98;;;;;;;20.04;36.48;99362.13;4265129;27;20013;-58
2024/03/02 06:13:56;;;;;;;4.80;1.30;;;;;;;20.05;36.27;99357.59;4265236;27;20046;-57
2024/03/02 06:15:57;;;;;;;3.20;0.73;;;;;;;20.06;36.09;99354.81;4264850;27;20049;-57
2024/03/02 06:18:00;;;;;;;;;;;;;;;20.06;36.36;99356.63;4265461;27;20129;-58
2024/03/02 06:20:02;;;;;;;;;;;;;;;20.04;36.32;99355.94;4265369;27;19974;-58
2024/03/02 06:22:04;;;;;;;4.15;1.20;;;;;;;19.88;36.16;99341.41;4265159;27;19961;-58
2024/03/02 06:24:06;;;;;;;3.65;0.90;;;;;;;20.02;36.10;99364.09;4264945;27;20051;-58
2024/03/02 06:26:07;;;;;;;4.28;1.00;;;;;;;19.95;36.13;99346.97;4264660;27;20136;-57
2024/03/02 06:28:09;;;;;;;4.53;1.08;;;;;;;20.03;36.22;99347.09;4265088;27;20095;-58
2024/03/02 06:30:11;;;;;;;3.70;1.00;;;;;;;20.03;36.09;99344.41;4264623;27;20134;-58
2024/03/02 06:32:13;;;;;;;4.20;1.20;;;;;;;20.08;36.39;99346.63;4264965;27;20499;-58
2024/03/02 06:34:15;;;;;;;4.22;1.30;;;;;;;20.07;36.08;99343.16;4264846;27;20062;-58
2024/03/02 06:36:17;;;;;;;4.38;1.20;;;;;;;20.09;36.05;99335.81;4264722;27;20049;-58
2024/03/02 06:38:19;;;;;;;3.88;0.90;;;;;;;20.06;36.48;99340.59;4264753;27;20043;-57
2024/03/02 06:40:21;;;;;;;5.18;1.00;;;;;;;20.06;36.14;99344.13;4264726;27;20458;-57
2024/03/02 06:42:24;;;;;;;3.45;0.82;;;;;;;20.03;36.37;99332.91;4264752;27;20043;-59
2024/03/02 06:44:25;;;;;;;2.42;0.80;;;;;;;20.04;36.35;99335.44;4264464;27;20052;-57
2024/03/02 06:46:27;;;;;;;3.83;1.23;;;;;;;20.04;36.22;99343.44;4264534;27;20047;-57
2024/03/02 06:48:29;;;;;;;3.20;1.08;;;;;;;20.06;36.39;99338.78;4264841;27;20118;-58
2024/03/02 06:50:31;;;;;;;3.33;0.95;;;;;;;19.94;36.18;99324.81;4264596;27;20073;-58
2024/03/02 06:52:33;;;;;;;4.32;1.08;;;;;;;20.04;36.35;99340.75;4264635;27;20440;-58
2024/03/02 06:54:36;;;;;;;4.15;1.10;;;;;;;20.03;36.11;99343.59;4264605;27;20125;-57
2024/03/02 06:56:38;;;;;;;3.65;1.10;;;;;;;20.03;36.37;99341.75;4264611;27;20050;-58
2024/03/02 06:58:40;;;;;;;3.63;1.33;;;;;;;20.05;36.34;99353.13;4264269;27;20053;-57
2024/03/02 07:00:43;;;;;;;4.00;1.00;;;;;;;20.06;36.41;99338.78;4264377;27;20042;-58
2024/03/02 07:02:46;;;;;;;4.47;1.20;;;;;;;20.01;36.34;99340.22;4264571;27;20111;-58
2024/03/02 07:04:47;;;;;;;;;;;;;;;20.06;36.34;99346.78;4264906;27;20054;-57
2024/03/02 07:06:49;;;;;;;3.10;0.90;;;;;;;20.04;36.59;99339.94;4264235;27;19973;-58
2024/03/02 07:08:50;;;;;;;3.38;1.00;;;;;;;20.04;36.22;99334.59;4264536;27;20675;-57
2024/03/02 07:10:52;;;;;;;3.20;0.90;;;;;;;20.05;36.22;99337.09;4264403;27;20501;-58
2024/03/02 07:12:54;;;;;;;6.10;1.33;;;;;;;20.00;36.04;99326.06;4263985;27;20051;-58
2024/03/02 07:16:57;;;;;;;3.40;1.10;;;;;;;20.04;36.54;99332.75;4264365;27;20071;-57
2024/03/02 07:19:01;;;;;;;4.75;1.10;;;;;;;20.02;35.95;99323.22;4264301;27;20126;-57
2024/03/02 07:21:03;;;;;;;3.35;0.90;;;;;;;20.06;36.54;99340.59;4264152;27;20504;-57
2024/03/02 07:23:05;;;;;;;;;;;;;;;20.07;36.41;99337.81;4264967;27;20458;-57
2024/03/02 07:25:07;;;;;;;5.28;1.10;;;;;;;20.05;36.41;99334.44;4264322;27;19976;-58
2024/03/02 07:27:09;;;;;;;3.47;1.02;;;;;;;20.06;36.38;99337.94;4264291;27;20042;-57
2024/03/02 07:29:12;;;;;;;4.57;1.00;;;;;;;20.06;36.16;99336.13;4263764;27;20043;-58
2024/03/02 07:31:13;;;;;;;;;;;;;;;20.04;36.46;99338.09;4264753;27;20047;-58
2024/03/02 07:33:16;;;;;;;3.08;1.00;;;;;;;20.03;36.39;99328.41;4264114;27;20358;-58
2024/03/02 07:35:18;;;;;;;3.55;0.90;;;;;;;20.04;36.54;99337.25;4264109;27;20508;-57
2024/03/02 07:37:20;;;;;;;3.50;1.10;;;;;;;20.05;36.41;99330.91;4264016;27;20138;-57
2024/03/02 07:39:22;;;;;;;3.60;1.25;;;;;;;20.05;36.55;99333.59;4267380;27;20043;-58
2024/03/02 07:41:24;;;;;;;2.92;0.98;;;;;;;20.06;36.41;99335.25;4267546;27;20046;-59
2024/03/02 07:43:26;;;;;;;3.35;0.95;;;;;;;20.05;36.19;99330.91;4267185;27;20420;-58
2024/03/02 07:45:27;;;;;;;3.28;1.10;;;;;;;20.04;36.17;99329.25;4267519;27;20284;-57
2024/03/02 07:47:29;;;;;;;4.97;1.13;;;;;;;20.07;36.13;99324.47;4267486;27;20043;-56
2024/03/02 07:49:31;;;;;;;4.88;1.05;;;;;;;20.09;36.09;99335.81;4267338;27;20042;-57
2024/03/02 07:51:32;;;;;;;4.75;1.23;;;;;;;20.10;36.32;99331.31;4267399;27;20186;-58
2024/03/02 07:53:34;;;;;;;3.53;1.00;;;;;;;20.08;36.11;99311.94;4267244;27;20043;-57
2024/03/02 07:55:36;;;;;;;3.25;1.00;;;;;;;20.03;36.07;99311.56;4267332;27;20042;-57
2024/03/02 07:57:37;;;;;;;3.03;0.85;;;;;;;20.07;36.03;99319.13;4266800;27;20416;-57
2024/03/02 07:59:39;;;;;;;3.47;1.02;;;;;;;19.94;36.04;99302.63;4267328;27;20042;-58
2024/03/02 08:01:41;;;;;;;3.55;1.10;;;;;;;20.05;36.36;99326.44;4267098;27;20042;-58
2024/03/02 08:03:47;;;;;;;;;;;;;;;20.03;36.26;99323.06;4267621;27;20055;-57
2024/03/02 08:05:49;;;;;;;3.85;1.13;;;;;;;19.95;36.42;99313.16;4266932;27;19918;-58
2024/03/02 08:07:54;;;;;;;4.70;1.23;;;;;;;20.05;36.28;99328.25;4248483;27;20043;-57
2024/03/02 08:09:55;;;;;;;4.03;1.10;;;;;;;20.07;36.51;99323.59;4266971;27;20462;-57
2024/03/02 08:11:58;;;;;;;3.63;1.10;;;;;;;20.09;36.39;99324.31;4266616;27;20106;-58
2024/03/02 08:13:59;;;;;;;3.38;0.98;;;;;;;20.08;36.33;99327.97;4248613;27;20099;-58
2024/03/02 08:16:03;;;;;;;3.72;0.93;;;;;;;20.08;36.19;99331.44;4266814;27;20054;-57
2024/03/02 08:18:05;;;;;;;3.30;1.10;;;;;;;20.10;36.44;99328.66;4266823;27;20043;-57
2024/03/02 08:20:07;;;;;;;3.67;1.05;;;;;;;20.09;36.43;99327.81;4266654;27;20099;-58
2024/03/02 08:22:10;;;;;;;4.28;1.10;;;;;;;20.04;36.43;99327.41;4266806;27;20042;-57
2024/03/02 08:24:12;;;;;;;3.67;1.00;;;;;;;20.06;36.42;99328.13;4248607;27;20066;-57
2024/03/02 08:26:13;;;;;;;3.92;1.00;;;;;;;20.06;36.40;99325.44;4266327;27;20054;-57
2024/03/02 08:28:15;;;;;;;3.60;0.90;;;;;;;20.05;36.57;99328.25;4266689;27;20043;-57
2024/03/02 08:30:17;;;;;;;4.72;1.25;;;;;;;20.03;36.50;99330.25;4266642;27;20042;-56
2024/03/02 08:32:20;;;;;;;4.20;1.08;;;;;;;20.05;36.47;99330.91;4266580;27;20121;-57
2024/03/02 08:34:21;;;;;;;3.33;0.95;;;;;;;20.06;36.59;99332.59;4266350;27;20050;-56
2024/03/02 08:36:23;;;;;;;3.40;0.90;;;;;;;20.01;36.10;99317.03;4266590;27;20063;-57
2024/03/02 08:38:25;;;;;;;;;;;;;;;20.07;36.63;99323.59;4266831;27;20497;-60
2024/03/02 08:40:26;;;;;;;3.30;1.10;;;;;;;19.98;36.31;99313.81;4265990;27;19963;-57
2024/03/02 08:42:28;;;;;;;3.65;0.90;;;;;;;20.07;36.35;99320.94;4266419;27;20470;-57
2024/03/02 08:44:30;;;;;;;3.92;1.20;;;;;;;19.99;36.63;99311.03;4266372;27;20082;-57
2024/03/02 08:46:32;;;;;;;4.63;1.00;;;;;;;20.07;36.47;99327.13;4266302;27;20117;-57
2024/03/02 08:48:34;;;;;;;3.15;0.98;;;;;;;20.07;36.41;99326.28;4265940;27;20133;-58
2024/03/02 08:50:36;;;;;;;3.55;1.00;;;;;;;19.99;36.52;99312.84;4266322;27;20121;-58
2024/03/02 08:52:38;;;;;;;;;;;;;;;20.06;36.66;99324.59;4266513;27;20047;-58
2024/03/02 08:54:40;;;;;;;4.78;1.13;;;;;;;20.02;36.78;99325.91;4265923;27;20009;-58
2024/03/02 08:56:41;;;;;;;14.35;1.88;;;;;;;20.04;36.72;99326.59;4265986;27;20457;-58
2024/03/02 08:58:44;;;;;;;18.50;2.58;;;;;;;20.05;36.44;99329.09;4266345;27;20069;-58
2024/03/02 09:00:47;;;;;;;12.65;2.17;;;;;;;20.01;36.61;99321.53;4266119;27;20046;-58
2024/03/02 09:02:50;;;;;;;11.18;2.08;;;;;;;19.85;36.38;99290.19;4239786;27;20055;-58
2024/03/02 09:04:51;;;;;;;;;;;;;;;20.06;36.37;99325.44;4247175;27;20044;-58
2024/03/02 09:06:53;;;;;;;7.30;1.73;;;;;;;19.93;36.06;99308.97;4242111;27;19919;-60
2024/03/02 09:08:55;;;;;;;6.57;1.67;;;;;;;19.80;36.47;99302.09;4240546;27;20093;-58
2024/03/02 09:10:57;;;;;;;8.48;1.90;;;;;;;19.72;36.63;99287.81;4213660;28;20047;-59
2024/03/02 09:12:58;;;;;;;;;;;;;;;19.88;36.76;99324.56;4231948;28;20053;-58
2024/03/02 09:15:01;;;;;;;9.10;1.88;;;;;;;19.80;36.86;99325.28;4231691;28;19930;-58
2024/03/02 09:17:06;;;;;;;8.95;2.00;;;;;;;19.82;36.84;99327.78;4232050;27;20043;-57
2024/03/02 09:19:07;;;;;;;7.75;1.70;;;;;;;19.80;37.05;99323.44;4241372;27;20049;-58
2024/03/02 09:21:10;;;;;;;11.05;1.95;;;;;;;19.49;37.11;99272.25;4248045;27;20085;-57
2024/03/02 09:23:12;;;;;;;9.38;1.92;;;;;;;19.80;37.56;99334.09;4248353;27;20078;-57
2024/03/02 09:25:13;;;;;;;5.28;1.27;;;;;;;19.79;37.25;99324.44;4248021;27;20420;-58
2024/03/02 09:27:15;;;;;;;9.20;1.60;;;;;;;19.75;37.81;99314.22;4248452;27;20134;-58
2024/03/02 09:29:16;;;;;;;;;;;;;;;19.79;37.71;99319.13;4248857;27;20043;-58
2024/03/02 09:31:18;;;;;;;9.60;1.58;;;;;;;19.63;37.79;99301.06;4247811;27;19959;-58
2024/03/02 09:33:20;;;;;;;6.20;1.63;;;;;;;19.73;38.09;99310.84;4230835;28;20538;-57
2024/03/02 09:35:21;;;;;;;7.95;1.60;;;;;;;19.76;37.74;99321.25;4219434;28;20035;-58
2024/03/02 09:37:23;;;;;;;7.30;1.38;;;;;;;19.79;37.94;99311.13;4244304;27;20053;-57
2024/03/02 09:39:25;;;;;;;6.63;1.65;;;;;;;19.77;38.00;99310.41;4247355;27;20522;-58
2024/03/02 09:41:27;;;;;;;4.15;1.38;;;;;;;19.84;37.88;99310.66;4247999;27;20058;-58
2024/03/02 09:43:29;;;;;;;6.32;1.40;;;;;;;19.86;38.16;99308.69;4247740;27;20134;-58
2024/03/02 09:45:31;;;;;;;9.20;1.67;;;;;;;19.87;38.24;99309.56;4248016;27;20550;-58
2024/03/02 09:47:32;;;;;;;;;;;;;;;19.91;38.20;99317.09;4248134;27;20443;-58